sensor_id;sensor_type;location;lat;lon;timestamp;temperature;humidity
4739;DHT22;2383;48.632;10.156;2022-07-24T00:02:51;24.80;92.40
4739;DHT22;2383;48.632;10.156;2022-07-24T00:06:53;24.60;92.80
4739;DHT22;2383;48.632;10.156;2022-07-24T00:10:55;25.20;91.90
4739;DHT22;2383;48.632;10.156;2022-07-24T00:14:59;25.30;91.80
4739;DHT22;2383;48.632;10.156;2022-07-24T00:19:04;25.30;91.80
4739;DHT22;2383;48.632;10.156;2022-07-24T00:23:07;25.60;91.10
4739;DHT22;2383;48.632;10.156;2022-07-24T00:27:09;25.80;90.90
4739;DHT22;2383;48.632;10.156;2022-07-24T00:31:10;25.70;91.30
4739;DHT22;2383;48.632;10.156;2022-07-24T00:35:15;25.20;91.80
4739;DHT22;2383;48.632;10.156;2022-07-24T00:39:17;24.70;92.40
4739;DHT22;2383;48.632;10.156;2022-07-24T00:43:19;24.60;92.60
4739;DHT22;2383;48.632;10.156;2022-07-24T00:47:21;24.80;92.50
4739;DHT22;2383;48.632;10.156;2022-07-24T00:55:44;25.30;91.70
4739;DHT22;2383;48.632;10.156;2022-07-24T00:59:46;25.20;91.70
4739;DHT22;2383;48.632;10.156;2022-07-24T01:03:48;24.30;92.80
4739;DHT22;2383;48.632;10.156;2022-07-24T01:07:52;24.40;92.70
4739;DHT22;2383;48.632;10.156;2022-07-24T01:12:04;24.40;92.80
4739;DHT22;2383;48.632;10.156;2022-07-24T01:16:08;24.40;92.90
4739;DHT22;2383;48.632;10.156;2022-07-24T01:20:11;24.80;92.20
4739;DHT22;2383;48.632;10.156;2022-07-24T01:24:12;25.10;91.80
4739;DHT22;2383;48.632;10.156;2022-07-24T01:28:14;24.80;91.80
4739;DHT22;2383;48.632;10.156;2022-07-24T01:32:18;24.70;91.90
4739;DHT22;2383;48.632;10.156;2022-07-24T01:36:32;24.60;91.70
4739;DHT22;2383;48.632;10.156;2022-07-24T01:40:34;24.30;92.40
4739;DHT22;2383;48.632;10.156;2022-07-24T01:44:36;24.20;92.70
4739;DHT22;2383;48.632;10.156;2022-07-24T01:48:40;23.50;93.40
4739;DHT22;2383;48.632;10.156;2022-07-24T01:52:42;23.90;93.30
4739;DHT22;2383;48.632;10.156;2022-07-24T01:56:47;23.60;93.40
4739;DHT22;2383;48.632;10.156;2022-07-24T02:00:49;23.20;94.10
4739;DHT22;2383;48.632;10.156;2022-07-24T02:04:52;23.10;94.30
4739;DHT22;2383;48.632;10.156;2022-07-24T02:08:54;23.50;93.50
4739;DHT22;2383;48.632;10.156;2022-07-24T02:12:57;23.90;93.20
4739;DHT22;2383;48.632;10.156;2022-07-24T02:17:01;23.50;93.30
4739;DHT22;2383;48.632;10.156;2022-07-24T02:21:03;23.20;94.00
4739;DHT22;2383;48.632;10.156;2022-07-24T02:25:06;23.20;94.20
4739;DHT22;2383;48.632;10.156;2022-07-24T02:29:08;23.30;94.10
4739;DHT22;2383;48.632;10.156;2022-07-24T02:33:13;23.40;94.10
4739;DHT22;2383;48.632;10.156;2022-07-24T02:37:17;23.00;94.40
4739;DHT22;2383;48.632;10.156;2022-07-24T02:41:19;22.60;95.00
4739;DHT22;2383;48.632;10.156;2022-07-24T02:45:21;22.70;95.30
4739;DHT22;2383;48.632;10.156;2022-07-24T02:49:23;23.00;94.90
4739;DHT22;2383;48.632;10.156;2022-07-24T02:53:28;22.90;94.90
4739;DHT22;2383;48.632;10.156;2022-07-24T02:57:30;22.90;94.70
4739;DHT22;2383;48.632;10.156;2022-07-24T03:01:32;23.20;94.30
4739;DHT22;2383;48.632;10.156;2022-07-24T03:05:34;23.20;94.30
4739;DHT22;2383;48.632;10.156;2022-07-24T03:09:36;23.00;94.70
4739;DHT22;2383;48.632;10.156;2022-07-24T03:13:40;22.30;95.70
4739;DHT22;2383;48.632;10.156;2022-07-24T03:17:49;22.10;96.00
4739;DHT22;2383;48.632;10.156;2022-07-24T03:21:52;22.50;95.40
4739;DHT22;2383;48.632;10.156;2022-07-24T03:26:08;22.30;95.90
4739;DHT22;2383;48.632;10.156;2022-07-24T03:30:11;22.30;95.90
4739;DHT22;2383;48.632;10.156;2022-07-24T03:34:13;23.00;94.90
4739;DHT22;2383;48.632;10.156;2022-07-24T03:38:15;22.60;95.20
4739;DHT22;2383;48.632;10.156;2022-07-24T03:42:17;22.70;95.20
4739;DHT22;2383;48.632;10.156;2022-07-24T03:46:22;22.70;95.20
4739;DHT22;2383;48.632;10.156;2022-07-24T03:50:25;22.50;95.50
4739;DHT22;2383;48.632;10.156;2022-07-24T03:54:27;22.60;95.40
4739;DHT22;2383;48.632;10.156;2022-07-24T03:58:29;22.60;95.40
4739;DHT22;2383;48.632;10.156;2022-07-24T04:02:39;22.60;95.40
4739;DHT22;2383;48.632;10.156;2022-07-24T04:06:41;22.60;95.40
4739;DHT22;2383;48.632;10.156;2022-07-24T04:10:43;22.70;95.10
4739;DHT22;2383;48.632;10.156;2022-07-24T04:14:44;22.90;94.90
4739;DHT22;2383;48.632;10.156;2022-07-24T04:18:46;22.50;95.40
4739;DHT22;2383;48.632;10.156;2022-07-24T04:22:49;22.20;95.80
4739;DHT22;2383;48.632;10.156;2022-07-24T04:26:58;22.10;95.90
4739;DHT22;2383;48.632;10.156;2022-07-24T04:30:59;22.00;96.30
4739;DHT22;2383;48.632;10.156;2022-07-24T04:35:02;22.00;96.40
4739;DHT22;2383;48.632;10.156;2022-07-24T04:39:07;21.60;97.20
4739;DHT22;2383;48.632;10.156;2022-07-24T04:43:10;22.00;96.60
4739;DHT22;2383;48.632;10.156;2022-07-24T04:47:12;21.90;96.90
4739;DHT22;2383;48.632;10.156;2022-07-24T04:51:14;22.20;96.60
4739;DHT22;2383;48.632;10.156;2022-07-24T04:55:16;22.60;96.10
4739;DHT22;2383;48.632;10.156;2022-07-24T04:59:18;23.10;95.20
4739;DHT22;2383;48.632;10.156;2022-07-24T05:03:20;23.10;95.20
4739;DHT22;2383;48.632;10.156;2022-07-24T05:07:31;21.70;96.20
4739;DHT22;2383;48.632;10.156;2022-07-24T05:11:33;22.40;96.20
4739;DHT22;2383;48.632;10.156;2022-07-24T05:15:35;22.80;95.70
4739;DHT22;2383;48.632;10.156;2022-07-24T05:19:37;23.10;95.10
4739;DHT22;2383;48.632;10.156;2022-07-24T05:23:39;22.80;95.70
4739;DHT22;2383;48.632;10.156;2022-07-24T05:27:48;23.20;95.20
4739;DHT22;2383;48.632;10.156;2022-07-24T05:31:50;23.30;95.10
4739;DHT22;2383;48.632;10.156;2022-07-24T05:35:53;23.50;94.90
4739;DHT22;2383;48.632;10.156;2022-07-24T05:39:55;23.70;94.70
4739;DHT22;2383;48.632;10.156;2022-07-24T05:43:58;23.70;94.80
4739;DHT22;2383;48.632;10.156;2022-07-24T05:48:01;23.80;94.50
4739;DHT22;2383;48.632;10.156;2022-07-24T05:52:04;24.20;94.00
4739;DHT22;2383;48.632;10.156;2022-07-24T05:56:10;24.40;94.30
4739;DHT22;2383;48.632;10.156;2022-07-24T06:00:13;24.20;94.40
4739;DHT22;2383;48.632;10.156;2022-07-24T06:04:18;24.50;94.30
4739;DHT22;2383;48.632;10.156;2022-07-24T06:08:20;24.60;94.10
4739;DHT22;2383;48.632;10.156;2022-07-24T06:12:22;24.80;93.50
4739;DHT22;2383;48.632;10.156;2022-07-24T06:16:24;24.90;93.70
4739;DHT22;2383;48.632;10.156;2022-07-24T06:20:26;24.50;94.30
4739;DHT22;2383;48.632;10.156;2022-07-24T06:24:28;24.60;94.10
4739;DHT22;2383;48.632;10.156;2022-07-24T06:28:35;25.10;93.60
4739;DHT22;2383;48.632;10.156;2022-07-24T06:32:36;25.70;93.30
4739;DHT22;2383;48.632;10.156;2022-07-24T06:36:38;26.10;92.70
4739;DHT22;2383;48.632;10.156;2022-07-24T06:40:40;26.00;92.90
4739;DHT22;2383;48.632;10.156;2022-07-24T06:44:42;26.00;93.10
4739;DHT22;2383;48.632;10.156;2022-07-24T06:48:44;25.70;93.30
4739;DHT22;2383;48.632;10.156;2022-07-24T06:52:45;26.20;92.60
4739;DHT22;2383;48.632;10.156;2022-07-24T06:56:49;26.10;92.40
4739;DHT22;2383;48.632;10.156;2022-07-24T07:00:53;26.70;92.20
4739;DHT22;2383;48.632;10.156;2022-07-24T07:04:54;26.60;92.10
4739;DHT22;2383;48.632;10.156;2022-07-24T07:08:58;27.10;91.50
4739;DHT22;2383;48.632;10.156;2022-07-24T07:13:04;27.00;91.50
4739;DHT22;2383;48.632;10.156;2022-07-24T07:17:06;27.20;91.50
4739;DHT22;2383;48.632;10.156;2022-07-24T07:21:07;27.10;90.50
4739;DHT22;2383;48.632;10.156;2022-07-24T07:25:12;27.20;90.10
4739;DHT22;2383;48.632;10.156;2022-07-24T07:29:18;27.60;89.80
4739;DHT22;2383;48.632;10.156;2022-07-24T07:33:20;27.90;89.70
4739;DHT22;2383;48.632;10.156;2022-07-24T07:37:22;28.10;87.40
4739;DHT22;2383;48.632;10.156;2022-07-24T07:41:26;28.20;85.80
4739;DHT22;2383;48.632;10.156;2022-07-24T07:45:28;28.30;86.60
4739;DHT22;2383;48.632;10.156;2022-07-24T07:49:32;27.90;83.70
4739;DHT22;2383;48.632;10.156;2022-07-24T07:53:35;27.80;86.00
4739;DHT22;2383;48.632;10.156;2022-07-24T07:57:36;27.90;85.20
4739;DHT22;2383;48.632;10.156;2022-07-24T08:01:59;28.00;85.70
4739;DHT22;2383;48.632;10.156;2022-07-24T08:06:01;28.20;85.00
4739;DHT22;2383;48.632;10.156;2022-07-24T08:10:04;28.10;84.50
4739;DHT22;2383;48.632;10.156;2022-07-24T08:14:11;28.20;84.40
4739;DHT22;2383;48.632;10.156;2022-07-24T08:18:13;28.20;83.60
4739;DHT22;2383;48.632;10.156;2022-07-24T08:22:15;28.40;83.50
4739;DHT22;2383;48.632;10.156;2022-07-24T08:26:17;28.60;83.30
4739;DHT22;2383;48.632;10.156;2022-07-24T08:30:19;28.40;85.30
4739;DHT22;2383;48.632;10.156;2022-07-24T08:34:21;28.70;84.90
4739;DHT22;2383;48.632;10.156;2022-07-24T08:38:24;29.00;84.20
4739;DHT22;2383;48.632;10.156;2022-07-24T08:42:25;28.90;84.40
4739;DHT22;2383;48.632;10.156;2022-07-24T08:46:28;29.00;84.40
4739;DHT22;2383;48.632;10.156;2022-07-24T08:50:35;28.90;83.80
4739;DHT22;2383;48.632;10.156;2022-07-24T08:54:38;29.00;83.90
4739;DHT22;2383;48.632;10.156;2022-07-24T08:58:41;28.60;84.60
4739;DHT22;2383;48.632;10.156;2022-07-24T09:02:43;28.90;83.30
4739;DHT22;2383;48.632;10.156;2022-07-24T09:06:56;29.20;83.40
4739;DHT22;2383;48.632;10.156;2022-07-24T09:11:01;29.10;83.50
4739;DHT22;2383;48.632;10.156;2022-07-24T09:19:14;29.50;82.00
4739;DHT22;2383;48.632;10.156;2022-07-24T09:23:20;29.60;82.60
4739;DHT22;2383;48.632;10.156;2022-07-24T09:27:22;29.50;81.90
4739;DHT22;2383;48.632;10.156;2022-07-24T09:31:24;29.30;82.60
4739;DHT22;2383;48.632;10.156;2022-07-24T09:35:43;29.30;81.70
4739;DHT22;2383;48.632;10.156;2022-07-24T09:39:46;29.40;82.00
4739;DHT22;2383;48.632;10.156;2022-07-24T09:44:01;29.70;81.40
4739;DHT22;2383;48.632;10.156;2022-07-24T09:48:21;30.20;80.60
4739;DHT22;2383;48.632;10.156;2022-07-24T09:52:32;30.10;80.80
4739;DHT22;2383;48.632;10.156;2022-07-24T09:56:45;29.20;79.50
4739;DHT22;2383;48.632;10.156;2022-07-24T10:06:22;29.90;80.50
4739;DHT22;2383;48.632;10.156;2022-07-24T10:11:04;30.60;77.40
4739;DHT22;2383;48.632;10.156;2022-07-24T10:31:44;30.10;80.50
4739;DHT22;2383;48.632;10.156;2022-07-24T10:36:31;31.30;75.30
4739;DHT22;2383;48.632;10.156;2022-07-24T10:40:50;31.70;75.80
4739;DHT22;2383;48.632;10.156;2022-07-24T11:06:51;32.00;73.90
4739;DHT22;2383;48.632;10.156;2022-07-24T11:15:11;32.20;72.60
4739;DHT22;2383;48.632;10.156;2022-07-24T11:19:32;32.00;71.30
4739;DHT22;2383;48.632;10.156;2022-07-24T11:23:35;31.40;73.30
4739;DHT22;2383;48.632;10.156;2022-07-24T11:27:55;31.60;72.50
4739;DHT22;2383;48.632;10.156;2022-07-24T11:40:39;30.90;73.50
4739;DHT22;2383;48.632;10.156;2022-07-24T11:44:44;31.20;73.80
4739;DHT22;2383;48.632;10.156;2022-07-24T11:48:46;31.00;75.90
4739;DHT22;2383;48.632;10.156;2022-07-24T11:53:06;31.10;73.70
4739;DHT22;2383;48.632;10.156;2022-07-24T11:57:25;31.30;72.20
4739;DHT22;2383;48.632;10.156;2022-07-24T12:02:02;31.50;73.70
4739;DHT22;2383;48.632;10.156;2022-07-24T12:06:12;31.00;72.00
4739;DHT22;2383;48.632;10.156;2022-07-24T12:10:19;31.20;72.60
4739;DHT22;2383;48.632;10.156;2022-07-24T12:14:22;31.10;72.50
4739;DHT22;2383;48.632;10.156;2022-07-24T12:18:49;31.40;71.10
4739;DHT22;2383;48.632;10.156;2022-07-24T12:22:54;31.40;71.00
4739;DHT22;2383;48.632;10.156;2022-07-24T12:26:58;31.40;71.30
4739;DHT22;2383;48.632;10.156;2022-07-24T12:31:06;32.10;70.80
4739;DHT22;2383;48.632;10.156;2022-07-24T12:35:15;31.90;70.90
4739;DHT22;2383;48.632;10.156;2022-07-24T12:39:19;31.90;69.40
4739;DHT22;2383;48.632;10.156;2022-07-24T12:43:25;31.50;69.90
4739;DHT22;2383;48.632;10.156;2022-07-24T12:52:23;31.90;71.50
4739;DHT22;2383;48.632;10.156;2022-07-24T12:56:33;31.90;70.80
4739;DHT22;2383;48.632;10.156;2022-07-24T13:00:41;31.60;70.20
4739;DHT22;2383;48.632;10.156;2022-07-24T13:04:57;30.90;70.10
4739;DHT22;2383;48.632;10.156;2022-07-24T13:08:59;31.60;69.40
4739;DHT22;2383;48.632;10.156;2022-07-24T13:13:02;32.20;68.30
4739;DHT22;2383;48.632;10.156;2022-07-24T13:17:10;32.20;66.90
4739;DHT22;2383;48.632;10.156;2022-07-24T13:21:12;32.20;68.20
4739;DHT22;2383;48.632;10.156;2022-07-24T13:25:14;32.10;68.10
4739;DHT22;2383;48.632;10.156;2022-07-24T13:29:16;32.00;66.40
4739;DHT22;2383;48.632;10.156;2022-07-24T13:33:22;32.30;66.00
4739;DHT22;2383;48.632;10.156;2022-07-24T13:37:37;32.30;66.00
4739;DHT22;2383;48.632;10.156;2022-07-24T13:41:39;32.60;64.50
4739;DHT22;2383;48.632;10.156;2022-07-24T13:45:41;32.10;66.00
4739;DHT22;2383;48.632;10.156;2022-07-24T13:49:43;32.20;67.00
4739;DHT22;2383;48.632;10.156;2022-07-24T13:53:45;32.60;66.50
4739;DHT22;2383;48.632;10.156;2022-07-24T13:57:56;32.70;65.80
4739;DHT22;2383;48.632;10.156;2022-07-24T14:01:58;32.00;66.60
4739;DHT22;2383;48.632;10.156;2022-07-24T14:06:01;32.00;65.80
4739;DHT22;2383;48.632;10.156;2022-07-24T14:10:03;31.70;67.50
4739;DHT22;2383;48.632;10.156;2022-07-24T14:14:07;31.60;66.80
4739;DHT22;2383;48.632;10.156;2022-07-24T14:18:10;31.70;67.20
4739;DHT22;2383;48.632;10.156;2022-07-24T14:22:12;31.90;66.90
4739;DHT22;2383;48.632;10.156;2022-07-24T14:26:14;32.30;66.60
4739;DHT22;2383;48.632;10.156;2022-07-24T14:30:16;31.90;66.10
4739;DHT22;2383;48.632;10.156;2022-07-24T14:34:21;32.20;65.30
4739;DHT22;2383;48.632;10.156;2022-07-24T14:38:27;32.30;65.80
4739;DHT22;2383;48.632;10.156;2022-07-24T14:42:32;32.30;65.00
4739;DHT22;2383;48.632;10.156;2022-07-24T14:46:44;32.40;64.60
4739;DHT22;2383;48.632;10.156;2022-07-24T14:50:47;32.20;65.20
4739;DHT22;2383;48.632;10.156;2022-07-24T14:54:53;32.20;65.90
4739;DHT22;2383;48.632;10.156;2022-07-24T15:03:35;32.20;66.40
4739;DHT22;2383;48.632;10.156;2022-07-24T15:07:37;32.40;65.50
4739;DHT22;2383;48.632;10.156;2022-07-24T15:11:39;32.30;65.20
4739;DHT22;2383;48.632;10.156;2022-07-24T15:15:41;32.30;64.50
4739;DHT22;2383;48.632;10.156;2022-07-24T15:19:50;32.20;63.40
4739;DHT22;2383;48.632;10.156;2022-07-24T15:23:52;32.20;63.90
4739;DHT22;2383;48.632;10.156;2022-07-24T15:28:14;32.40;62.90
4739;DHT22;2383;48.632;10.156;2022-07-24T15:32:16;32.50;63.90
4739;DHT22;2383;48.632;10.156;2022-07-24T15:36:26;32.40;62.80
4739;DHT22;2383;48.632;10.156;2022-07-24T15:40:28;32.60;63.10
4739;DHT22;2383;48.632;10.156;2022-07-24T15:44:32;32.70;63.40
4739;DHT22;2383;48.632;10.156;2022-07-24T15:48:34;32.50;63.40
4739;DHT22;2383;48.632;10.156;2022-07-24T15:52:36;32.30;64.30
4739;DHT22;2383;48.632;10.156;2022-07-24T15:56:40;32.10;64.00
4739;DHT22;2383;48.632;10.156;2022-07-24T16:00:42;32.30;63.10
4739;DHT22;2383;48.632;10.156;2022-07-24T16:04:46;32.40;63.90
4739;DHT22;2383;48.632;10.156;2022-07-24T16:08:50;32.70;63.10
4739;DHT22;2383;48.632;10.156;2022-07-24T16:12:54;33.00;62.40
4739;DHT22;2383;48.632;10.156;2022-07-24T16:17:03;32.00;63.20
4739;DHT22;2383;48.632;10.156;2022-07-24T16:21:06;32.80;62.30
4739;DHT22;2383;48.632;10.156;2022-07-24T16:25:08;32.80;61.60
4739;DHT22;2383;48.632;10.156;2022-07-24T16:29:20;32.40;62.40
4739;DHT22;2383;48.632;10.156;2022-07-24T16:33:28;32.40;61.00
4739;DHT22;2383;48.632;10.156;2022-07-24T16:37:44;32.80;62.00
4739;DHT22;2383;48.632;10.156;2022-07-24T16:41:46;32.70;62.50
4739;DHT22;2383;48.632;10.156;2022-07-24T16:45:48;32.80;62.10
4739;DHT22;2383;48.632;10.156;2022-07-24T16:49:51;32.80;61.00
4739;DHT22;2383;48.632;10.156;2022-07-24T16:53:56;33.00;60.70
4739;DHT22;2383;48.632;10.156;2022-07-24T16:58:00;33.00;59.60
4739;DHT22;2383;48.632;10.156;2022-07-24T17:02:13;33.00;60.80
4739;DHT22;2383;48.632;10.156;2022-07-24T17:06:20;32.60;61.00
4739;DHT22;2383;48.632;10.156;2022-07-24T17:10:23;32.90;60.30
4739;DHT22;2383;48.632;10.156;2022-07-24T17:14:47;33.00;60.80
4739;DHT22;2383;48.632;10.156;2022-07-24T17:18:54;33.20;60.40
4739;DHT22;2383;48.632;10.156;2022-07-24T17:22:59;32.60;60.40
4739;DHT22;2383;48.632;10.156;2022-07-24T17:27:01;32.60;61.20
4739;DHT22;2383;48.632;10.156;2022-07-24T17:31:04;32.70;60.70
4739;DHT22;2383;48.632;10.156;2022-07-24T17:35:06;33.10;61.20
4739;DHT22;2383;48.632;10.156;2022-07-24T17:39:08;32.70;60.10
4739;DHT22;2383;48.632;10.156;2022-07-24T17:43:10;32.50;58.70
4739;DHT22;2383;48.632;10.156;2022-07-24T17:47:13;32.50;59.80
4739;DHT22;2383;48.632;10.156;2022-07-24T17:51:15;32.70;58.40
4739;DHT22;2383;48.632;10.156;2022-07-24T17:55:18;32.60;57.80
4739;DHT22;2383;48.632;10.156;2022-07-24T17:59:29;32.50;59.30
4739;DHT22;2383;48.632;10.156;2022-07-24T18:03:31;32.60;59.20
4739;DHT22;2383;48.632;10.156;2022-07-24T18:07:36;32.60;59.30
4739;DHT22;2383;48.632;10.156;2022-07-24T18:11:46;32.70;61.60
4739;DHT22;2383;48.632;10.156;2022-07-24T18:15:57;32.50;62.00
4739;DHT22;2383;48.632;10.156;2022-07-24T18:20:03;32.20;63.60
4739;DHT22;2383;48.632;10.156;2022-07-24T18:24:09;32.20;67.80
4739;DHT22;2383;48.632;10.156;2022-07-24T18:28:11;32.10;67.90
4739;DHT22;2383;48.632;10.156;2022-07-24T18:32:13;31.90;70.90
4739;DHT22;2383;48.632;10.156;2022-07-24T18:36:24;31.60;68.40
4739;DHT22;2383;48.632;10.156;2022-07-24T18:40:26;31.20;67.20
4739;DHT22;2383;48.632;10.156;2022-07-24T18:44:29;31.00;67.20
4739;DHT22;2383;48.632;10.156;2022-07-24T18:48:40;31.00;67.60
4739;DHT22;2383;48.632;10.156;2022-07-24T18:52:44;31.00;69.70
4739;DHT22;2383;48.632;10.156;2022-07-24T18:56:46;30.70;69.50
4739;DHT22;2383;48.632;10.156;2022-07-24T19:00:51;30.10;72.40
4739;DHT22;2383;48.632;10.156;2022-07-24T19:09:53;30.10;75.20
4739;DHT22;2383;48.632;10.156;2022-07-24T19:13:55;29.60;75.90
4739;DHT22;2383;48.632;10.156;2022-07-24T19:18:00;29.40;76.60
4739;DHT22;2383;48.632;10.156;2022-07-24T19:22:03;29.50;76.00
4739;DHT22;2383;48.632;10.156;2022-07-24T19:26:07;29.60;76.10
4739;DHT22;2383;48.632;10.156;2022-07-24T19:30:09;29.50;77.10
4739;DHT22;2383;48.632;10.156;2022-07-24T19:34:12;28.90;78.40
4739;DHT22;2383;48.632;10.156;2022-07-24T19:38:16;29.10;75.20
4739;DHT22;2383;48.632;10.156;2022-07-24T19:42:19;29.00;77.20
4739;DHT22;2383;48.632;10.156;2022-07-24T19:46:20;28.50;77.30
4739;DHT22;2383;48.632;10.156;2022-07-24T19:50:23;27.90;77.80
4739;DHT22;2383;48.632;10.156;2022-07-24T19:55:03;28.10;77.90
4739;DHT22;2383;48.632;10.156;2022-07-24T19:59:05;27.00;79.80
4739;DHT22;2383;48.632;10.156;2022-07-24T20:03:10;27.40;79.30
4739;DHT22;2383;48.632;10.156;2022-07-24T20:07:16;27.30;80.00
4739;DHT22;2383;48.632;10.156;2022-07-24T20:11:19;27.40;79.50
4739;DHT22;2383;48.632;10.156;2022-07-24T20:15:22;27.20;80.10
4739;DHT22;2383;48.632;10.156;2022-07-24T20:19:24;27.70;79.20
4739;DHT22;2383;48.632;10.156;2022-07-24T20:23:33;27.70;78.70
4739;DHT22;2383;48.632;10.156;2022-07-24T20:27:35;27.70;79.00
4739;DHT22;2383;48.632;10.156;2022-07-24T20:31:38;27.60;79.80
4739;DHT22;2383;48.632;10.156;2022-07-24T20:35:40;27.30;79.30
4739;DHT22;2383;48.632;10.156;2022-07-24T20:39:41;27.50;79.30
4739;DHT22;2383;48.632;10.156;2022-07-24T20:43:44;27.70;78.10
4739;DHT22;2383;48.632;10.156;2022-07-24T20:47:46;27.90;77.10
4739;DHT22;2383;48.632;10.156;2022-07-24T20:51:51;27.90;77.70
4739;DHT22;2383;48.632;10.156;2022-07-24T20:55:53;27.40;78.60
4739;DHT22;2383;48.632;10.156;2022-07-24T20:59:56;26.90;79.70
4739;DHT22;2383;48.632;10.156;2022-07-24T21:04:01;26.60;81.10
4739;DHT22;2383;48.632;10.156;2022-07-24T21:08:04;26.10;82.40
4739;DHT22;2383;48.632;10.156;2022-07-24T21:12:06;26.00;82.60
4739;DHT22;2383;48.632;10.156;2022-07-24T21:16:09;25.80;83.10
4739;DHT22;2383;48.632;10.156;2022-07-24T21:20:12;25.80;82.70
4739;DHT22;2383;48.632;10.156;2022-07-24T21:24:14;25.90;83.20
4739;DHT22;2383;48.632;10.156;2022-07-24T21:28:16;25.60;84.10
4739;DHT22;2383;48.632;10.156;2022-07-24T21:32:18;26.30;82.90
4739;DHT22;2383;48.632;10.156;2022-07-24T21:36:23;26.10;83.10
4739;DHT22;2383;48.632;10.156;2022-07-24T21:40:28;26.40;82.30
4739;DHT22;2383;48.632;10.156;2022-07-24T21:44:32;26.40;82.60
4739;DHT22;2383;48.632;10.156;2022-07-24T21:48:34;26.60;82.50
4739;DHT22;2383;48.632;10.156;2022-07-24T21:52:36;26.60;82.50
4739;DHT22;2383;48.632;10.156;2022-07-24T21:56:38;26.40;82.90
4739;DHT22;2383;48.632;10.156;2022-07-24T22:00:44;26.10;83.20
4739;DHT22;2383;48.632;10.156;2022-07-24T22:04:46;26.00;84.10
4739;DHT22;2383;48.632;10.156;2022-07-24T22:08:48;26.10;84.00
4739;DHT22;2383;48.632;10.156;2022-07-24T22:12:50;25.70;84.90
4739;DHT22;2383;48.632;10.156;2022-07-24T22:16:52;25.90;84.10
4739;DHT22;2383;48.632;10.156;2022-07-24T22:20:55;25.80;84.20
4739;DHT22;2383;48.632;10.156;2022-07-24T22:24:56;26.00;83.50
4739;DHT22;2383;48.632;10.156;2022-07-24T22:28:58;26.00;84.00
4739;DHT22;2383;48.632;10.156;2022-07-24T22:33:00;25.70;85.20
4739;DHT22;2383;48.632;10.156;2022-07-24T22:37:02;25.90;84.20
4739;DHT22;2383;48.632;10.156;2022-07-24T22:41:05;25.60;84.70
4739;DHT22;2383;48.632;10.156;2022-07-24T22:45:08;25.20;85.70
4739;DHT22;2383;48.632;10.156;2022-07-24T22:49:10;25.50;85.40
4739;DHT22;2383;48.632;10.156;2022-07-24T22:53:18;25.70;84.40
4739;DHT22;2383;48.632;10.156;2022-07-24T22:57:20;25.40;85.20
4739;DHT22;2383;48.632;10.156;2022-07-24T23:01:23;25.30;85.90
4739;DHT22;2383;48.632;10.156;2022-07-24T23:05:26;25.30;85.90
4739;DHT22;2383;48.632;10.156;2022-07-24T23:09:28;25.50;85.20
4739;DHT22;2383;48.632;10.156;2022-07-24T23:13:32;25.40;85.90
4739;DHT22;2383;48.632;10.156;2022-07-24T23:17:34;24.80;87.30
4739;DHT22;2383;48.632;10.156;2022-07-24T23:21:36;24.80;87.40
4739;DHT22;2383;48.632;10.156;2022-07-24T23:25:39;24.80;87.30
4739;DHT22;2383;48.632;10.156;2022-07-24T23:29:41;24.80;87.80
4739;DHT22;2383;48.632;10.156;2022-07-24T23:33:43;24.20;88.40
4739;DHT22;2383;48.632;10.156;2022-07-24T23:37:45;24.00;90.00
4739;DHT22;2383;48.632;10.156;2022-07-24T23:41:47;23.80;89.70
4739;DHT22;2383;48.632;10.156;2022-07-24T23:45:50;24.10;89.50
4739;DHT22;2383;48.632;10.156;2022-07-24T23:49:52;24.30;88.80
4739;DHT22;2383;48.632;10.156;2022-07-24T23:53:54;24.60;88.20
4739;DHT22;2383;48.632;10.156;2022-07-24T23:57:56;24.80;87.90
